sensor_id;sensor_type;location;lat;lon;timestamp;P1;durP1;ratioP1;P2;durP2;ratioP2
12042;SDS011;6082;49.306;12.862;2024-02-16T00:00:01;4.90;;;2.93;;
12042;SDS011;6082;49.306;12.862;2024-02-16T00:02:28;4.40;;;2.83;;
12042;SDS011;6082;49.306;12.862;2024-02-16T00:04:54;6.73;;;3.43;;
12042;SDS011;6082;49.306;12.862;2024-02-16T00:07:20;6.73;;;3.60;;
12042;SDS011;6082;49.306;12.862;2024-02-16T00:09:46;10.37;;;4.30;;
12042;SDS011;6082;49.306;12.862;2024-02-16T00:12:12;4.73;;;3.23;;
12042;SDS011;6082;49.306;12.862;2024-02-16T00:14:37;4.30;;;3.07;;
12042;SDS011;6082;49.306;12.862;2024-02-16T00:17:03;7.77;;;3.17;;
12042;SDS011;6082;49.306;12.862;2024-02-16T00:19:29;9.63;;;2.83;;
12042;SDS011;6082;49.306;12.862;2024-02-16T00:21:55;3.73;;;2.83;;
12042;SDS011;6082;49.306;12.862;2024-02-16T00:24:22;4.77;;;2.50;;
12042;SDS011;6082;49.306;12.862;2024-02-16T00:26:48;10.10;;;2.97;;
12042;SDS011;6082;49.306;12.862;2024-02-16T00:29:14;4.33;;;2.97;;
12042;SDS011;6082;49.306;12.862;2024-02-16T00:31:40;4.30;;;2.97;;
12042;SDS011;6082;49.306;12.862;2024-02-16T00:34:06;4.40;;;2.87;;
12042;SDS011;6082;49.306;12.862;2024-02-16T00:36:31;4.53;;;2.77;;
12042;SDS011;6082;49.306;12.862;2024-02-16T00:38:59;5.97;;;3.60;;
12042;SDS011;6082;49.306;12.862;2024-02-16T00:41:25;4.23;;;2.90;;
12042;SDS011;6082;49.306;12.862;2024-02-16T00:43:51;4.87;;;3.33;;
12042;SDS011;6082;49.306;12.862;2024-02-16T00:46:17;7.07;;;3.57;;
12042;SDS011;6082;49.306;12.862;2024-02-16T00:48:43;7.47;;;4.07;;
12042;SDS011;6082;49.306;12.862;2024-02-16T00:51:09;5.67;;;3.60;;
12042;SDS011;6082;49.306;12.862;2024-02-16T00:53:34;4.87;;;2.83;;
12042;SDS011;6082;49.306;12.862;2024-02-16T00:56:00;3.27;;;2.70;;
12042;SDS011;6082;49.306;12.862;2024-02-16T00:58:26;6.73;;;2.47;;
12042;SDS011;6082;49.306;12.862;2024-02-16T01:00:51;4.80;;;3.10;;
12042;SDS011;6082;49.306;12.862;2024-02-16T01:03:18;3.70;;;2.53;;
12042;SDS011;6082;49.306;12.862;2024-02-16T01:05:43;6.10;;;2.87;;
12042;SDS011;6082;49.306;12.862;2024-02-16T01:08:09;3.70;;;2.60;;
12042;SDS011;6082;49.306;12.862;2024-02-16T01:10:35;3.20;;;2.40;;
12042;SDS011;6082;49.306;12.862;2024-02-16T01:13:01;4.70;;;2.60;;
12042;SDS011;6082;49.306;12.862;2024-02-16T01:15:28;11.63;;;3.70;;
12042;SDS011;6082;49.306;12.862;2024-02-16T01:17:54;5.70;;;2.97;;
12042;SDS011;6082;49.306;12.862;2024-02-16T01:20:20;4.53;;;2.83;;
12042;SDS011;6082;49.306;12.862;2024-02-16T01:22:45;4.40;;;2.50;;
12042;SDS011;6082;49.306;12.862;2024-02-16T01:25:11;3.97;;;2.47;;
12042;SDS011;6082;49.306;12.862;2024-02-16T01:27:37;3.23;;;2.20;;
12042;SDS011;6082;49.306;12.862;2024-02-16T01:30:03;3.57;;;2.57;;
12042;SDS011;6082;49.306;12.862;2024-02-16T01:32:29;4.40;;;2.50;;
12042;SDS011;6082;49.306;12.862;2024-02-16T01:34:54;4.57;;;3.33;;
12042;SDS011;6082;49.306;12.862;2024-02-16T01:37:20;6.03;;;3.40;;
12042;SDS011;6082;49.306;12.862;2024-02-16T01:39:47;14.07;;;3.60;;
12042;SDS011;6082;49.306;12.862;2024-02-16T01:42:12;4.90;;;3.33;;
12042;SDS011;6082;49.306;12.862;2024-02-16T01:44:38;14.27;;;3.23;;
12042;SDS011;6082;49.306;12.862;2024-02-16T01:47:04;4.80;;;3.20;;
12042;SDS011;6082;49.306;12.862;2024-02-16T01:49:30;3.70;;;2.73;;
12042;SDS011;6082;49.306;12.862;2024-02-16T01:51:56;4.53;;;3.03;;
12042;SDS011;6082;49.306;12.862;2024-02-16T01:54:22;4.13;;;2.60;;
12042;SDS011;6082;49.306;12.862;2024-02-16T01:56:48;8.43;;;2.50;;
12042;SDS011;6082;49.306;12.862;2024-02-16T01:59:16;5.00;;;2.73;;
12042;SDS011;6082;49.306;12.862;2024-02-16T02:01:42;3.23;;;2.60;;
12042;SDS011;6082;49.306;12.862;2024-02-16T02:04:07;5.03;;;2.70;;
12042;SDS011;6082;49.306;12.862;2024-02-16T02:06:33;3.33;;;2.60;;
12042;SDS011;6082;49.306;12.862;2024-02-16T02:08:59;4.37;;;2.97;;
12042;SDS011;6082;49.306;12.862;2024-02-16T02:11:24;4.47;;;2.97;;
12042;SDS011;6082;49.306;12.862;2024-02-16T02:13:50;3.73;;;2.40;;
12042;SDS011;6082;49.306;12.862;2024-02-16T02:16:16;3.93;;;2.43;;
12042;SDS011;6082;49.306;12.862;2024-02-16T02:18:43;4.03;;;2.70;;
12042;SDS011;6082;49.306;12.862;2024-02-16T02:21:09;4.20;;;2.83;;
12042;SDS011;6082;49.306;12.862;2024-02-16T02:23:35;4.20;;;2.80;;
12042;SDS011;6082;49.306;12.862;2024-02-16T02:26:01;5.47;;;2.93;;
12042;SDS011;6082;49.306;12.862;2024-02-16T02:28:27;4.17;;;2.50;;
12042;SDS011;6082;49.306;12.862;2024-02-16T02:30:54;4.70;;;3.03;;
12042;SDS011;6082;49.306;12.862;2024-02-16T02:33:20;3.13;;;2.73;;
12042;SDS011;6082;49.306;12.862;2024-02-16T02:35:46;4.23;;;2.93;;
12042;SDS011;6082;49.306;12.862;2024-02-16T02:38:12;3.30;;;2.83;;
12042;SDS011;6082;49.306;12.862;2024-02-16T02:40:38;3.80;;;3.03;;
12042;SDS011;6082;49.306;12.862;2024-02-16T02:43:04;4.00;;;2.63;;
12042;SDS011;6082;49.306;12.862;2024-02-16T02:45:31;4.40;;;3.00;;
12042;SDS011;6082;49.306;12.862;2024-02-16T02:47:56;3.37;;;3.00;;
12042;SDS011;6082;49.306;12.862;2024-02-16T02:50:22;5.20;;;2.93;;
12042;SDS011;6082;49.306;12.862;2024-02-16T02:52:49;4.00;;;3.00;;
12042;SDS011;6082;49.306;12.862;2024-02-16T02:55:15;3.97;;;2.80;;
12042;SDS011;6082;49.306;12.862;2024-02-16T02:57:41;4.00;;;2.53;;
12042;SDS011;6082;49.306;12.862;2024-02-16T03:00:07;3.03;;;2.70;;
12042;SDS011;6082;49.306;12.862;2024-02-16T03:02:39;4.17;;;2.80;;
12042;SDS011;6082;49.306;12.862;2024-02-16T03:05:06;3.47;;;2.50;;
12042;SDS011;6082;49.306;12.862;2024-02-16T03:07:32;3.83;;;2.40;;
12042;SDS011;6082;49.306;12.862;2024-02-16T03:09:59;6.60;;;5.17;;
12042;SDS011;6082;49.306;12.862;2024-02-16T03:12:25;6.47;;;3.37;;
12042;SDS011;6082;49.306;12.862;2024-02-16T03:14:51;13.80;;;6.97;;
12042;SDS011;6082;49.306;12.862;2024-02-16T03:17:17;6.23;;;3.73;;
12042;SDS011;6082;49.306;12.862;2024-02-16T03:19:42;5.43;;;3.23;;
12042;SDS011;6082;49.306;12.862;2024-02-16T03:22:08;4.80;;;3.00;;
12042;SDS011;6082;49.306;12.862;2024-02-16T03:24:34;4.67;;;2.63;;
12042;SDS011;6082;49.306;12.862;2024-02-16T03:26:59;3.60;;;2.50;;
12042;SDS011;6082;49.306;12.862;2024-02-16T03:29:25;3.10;;;2.43;;
12042;SDS011;6082;49.306;12.862;2024-02-16T03:31:52;4.33;;;2.63;;
12042;SDS011;6082;49.306;12.862;2024-02-16T03:34:17;5.40;;;3.07;;
12042;SDS011;6082;49.306;12.862;2024-02-16T03:36:43;6.17;;;2.87;;
12042;SDS011;6082;49.306;12.862;2024-02-16T03:39:09;4.90;;;2.63;;
12042;SDS011;6082;49.306;12.862;2024-02-16T03:41:35;7.67;;;3.70;;
12042;SDS011;6082;49.306;12.862;2024-02-16T03:44:00;4.97;;;3.30;;
12042;SDS011;6082;49.306;12.862;2024-02-16T03:46:26;5.37;;;2.87;;
12042;SDS011;6082;49.306;12.862;2024-02-16T03:48:52;7.87;;;3.20;;
12042;SDS011;6082;49.306;12.862;2024-02-16T03:51:18;4.13;;;2.80;;
12042;SDS011;6082;49.306;12.862;2024-02-16T03:53:44;6.00;;;3.37;;
12042;SDS011;6082;49.306;12.862;2024-02-16T03:56:10;3.43;;;2.67;;
12042;SDS011;6082;49.306;12.862;2024-02-16T03:58:37;7.03;;;2.97;;
12042;SDS011;6082;49.306;12.862;2024-02-16T04:01:03;3.30;;;2.37;;
12042;SDS011;6082;49.306;12.862;2024-02-16T04:03:32;3.60;;;2.57;;
12042;SDS011;6082;49.306;12.862;2024-02-16T04:05:57;3.30;;;2.50;;
12042;SDS011;6082;49.306;12.862;2024-02-16T04:08:24;3.73;;;2.50;;
12042;SDS011;6082;49.306;12.862;2024-02-16T04:10:50;3.47;;;2.60;;
12042;SDS011;6082;49.306;12.862;2024-02-16T04:13:16;4.63;;;2.73;;
12042;SDS011;6082;49.306;12.862;2024-02-16T04:15:42;2.63;;;2.20;;
12042;SDS011;6082;49.306;12.862;2024-02-16T04:18:07;3.47;;;2.50;;
12042;SDS011;6082;49.306;12.862;2024-02-16T04:20:34;3.63;;;2.53;;
12042;SDS011;6082;49.306;12.862;2024-02-16T04:23:00;6.47;;;3.53;;
12042;SDS011;6082;49.306;12.862;2024-02-16T04:25:27;4.60;;;3.23;;
12042;SDS011;6082;49.306;12.862;2024-02-16T04:27:53;5.87;;;3.00;;
12042;SDS011;6082;49.306;12.862;2024-02-16T04:30:19;3.73;;;2.23;;
12042;SDS011;6082;49.306;12.862;2024-02-16T04:32:44;4.60;;;2.80;;
12042;SDS011;6082;49.306;12.862;2024-02-16T04:35:10;4.07;;;2.77;;
12042;SDS011;6082;49.306;12.862;2024-02-16T04:37:39;4.50;;;3.00;;
12042;SDS011;6082;49.306;12.862;2024-02-16T04:40:05;4.50;;;3.03;;
12042;SDS011;6082;49.306;12.862;2024-02-16T04:42:32;4.80;;;2.73;;
12042;SDS011;6082;49.306;12.862;2024-02-16T04:44:58;5.40;;;3.23;;
12042;SDS011;6082;49.306;12.862;2024-02-16T04:47:27;5.43;;;3.97;;
12042;SDS011;6082;49.306;12.862;2024-02-16T04:49:52;6.93;;;3.90;;
12042;SDS011;6082;49.306;12.862;2024-02-16T04:52:18;5.27;;;3.30;;
12042;SDS011;6082;49.306;12.862;2024-02-16T04:54:44;4.97;;;3.70;;
12042;SDS011;6082;49.306;12.862;2024-02-16T04:57:10;10.30;;;6.17;;
12042;SDS011;6082;49.306;12.862;2024-02-16T04:59:35;9.33;;;5.00;;
12042;SDS011;6082;49.306;12.862;2024-02-16T05:02:01;8.20;;;5.20;;
12042;SDS011;6082;49.306;12.862;2024-02-16T05:04:29;7.87;;;4.67;;
12042;SDS011;6082;49.306;12.862;2024-02-16T05:06:54;6.63;;;4.57;;
12042;SDS011;6082;49.306;12.862;2024-02-16T05:09:22;6.90;;;4.77;;
12042;SDS011;6082;49.306;12.862;2024-02-16T05:11:51;6.93;;;4.00;;
12042;SDS011;6082;49.306;12.862;2024-02-16T05:14:17;8.43;;;4.67;;
12042;SDS011;6082;49.306;12.862;2024-02-16T05:16:46;9.70;;;4.90;;
12042;SDS011;6082;49.306;12.862;2024-02-16T05:19:12;6.60;;;4.23;;
12042;SDS011;6082;49.306;12.862;2024-02-16T05:21:38;9.63;;;5.30;;
12042;SDS011;6082;49.306;12.862;2024-02-16T05:24:04;7.33;;;4.73;;
12042;SDS011;6082;49.306;12.862;2024-02-16T05:26:30;9.17;;;5.67;;
12042;SDS011;6082;49.306;12.862;2024-02-16T05:28:55;9.93;;;5.53;;
12042;SDS011;6082;49.306;12.862;2024-02-16T05:31:21;13.03;;;5.93;;
12042;SDS011;6082;49.306;12.862;2024-02-16T05:33:48;11.73;;;5.33;;
12042;SDS011;6082;49.306;12.862;2024-02-16T05:36:17;7.63;;;5.20;;
12042;SDS011;6082;49.306;12.862;2024-02-16T05:38:52;9.53;;;5.47;;
12042;SDS011;6082;49.306;12.862;2024-02-16T05:41:20;12.20;;;6.00;;
12042;SDS011;6082;49.306;12.862;2024-02-16T05:43:46;11.20;;;5.73;;
12042;SDS011;6082;49.306;12.862;2024-02-16T05:46:16;14.13;;;5.13;;
12042;SDS011;6082;49.306;12.862;2024-02-16T05:48:43;11.40;;;5.47;;
12042;SDS011;6082;49.306;12.862;2024-02-16T05:51:09;12.23;;;6.37;;
12042;SDS011;6082;49.306;12.862;2024-02-16T05:53:37;12.80;;;6.27;;
12042;SDS011;6082;49.306;12.862;2024-02-16T05:56:04;8.07;;;5.37;;
12042;SDS011;6082;49.306;12.862;2024-02-16T05:58:30;13.67;;;6.17;;
12042;SDS011;6082;49.306;12.862;2024-02-16T06:00:56;11.70;;;5.67;;
12042;SDS011;6082;49.306;12.862;2024-02-16T06:03:22;10.40;;;5.33;;
12042;SDS011;6082;49.306;12.862;2024-02-16T06:05:48;11.17;;;5.40;;
12042;SDS011;6082;49.306;12.862;2024-02-16T06:08:14;11.47;;;6.10;;
12042;SDS011;6082;49.306;12.862;2024-02-16T06:10:44;17.57;;;6.80;;
12042;SDS011;6082;49.306;12.862;2024-02-16T06:13:16;11.17;;;6.57;;
12042;SDS011;6082;49.306;12.862;2024-02-16T06:15:42;12.23;;;6.17;;
12042;SDS011;6082;49.306;12.862;2024-02-16T06:18:08;12.60;;;6.93;;
12042;SDS011;6082;49.306;12.862;2024-02-16T06:20:34;13.10;;;6.37;;
12042;SDS011;6082;49.306;12.862;2024-02-16T06:23:00;14.30;;;6.33;;
12042;SDS011;6082;49.306;12.862;2024-02-16T06:25:27;12.90;;;6.00;;
12042;SDS011;6082;49.306;12.862;2024-02-16T06:27:52;13.33;;;6.87;;
12042;SDS011;6082;49.306;12.862;2024-02-16T06:30:18;9.77;;;6.57;;
12042;SDS011;6082;49.306;12.862;2024-02-16T06:32:44;12.23;;;6.53;;
12042;SDS011;6082;49.306;12.862;2024-02-16T06:35:09;12.63;;;6.07;;
12042;SDS011;6082;49.306;12.862;2024-02-16T06:37:36;13.30;;;6.27;;
12042;SDS011;6082;49.306;12.862;2024-02-16T06:40:05;9.53;;;5.97;;
12042;SDS011;6082;49.306;12.862;2024-02-16T06:42:31;10.27;;;6.07;;
12042;SDS011;6082;49.306;12.862;2024-02-16T06:44:59;17.00;;;7.53;;
12042;SDS011;6082;49.306;12.862;2024-02-16T06:47:25;13.90;;;6.50;;
12042;SDS011;6082;49.306;12.862;2024-02-16T06:49:51;13.70;;;6.23;;
12042;SDS011;6082;49.306;12.862;2024-02-16T06:52:17;13.33;;;6.37;;
12042;SDS011;6082;49.306;12.862;2024-02-16T06:54:43;11.50;;;6.07;;
12042;SDS011;6082;49.306;12.862;2024-02-16T06:57:09;14.40;;;6.37;;
12042;SDS011;6082;49.306;12.862;2024-02-16T06:59:35;11.40;;;6.40;;
12042;SDS011;6082;49.306;12.862;2024-02-16T07:02:00;12.33;;;6.43;;
12042;SDS011;6082;49.306;12.862;2024-02-16T07:04:26;11.33;;;6.53;;
12042;SDS011;6082;49.306;12.862;2024-02-16T07:06:52;12.43;;;6.33;;
12042;SDS011;6082;49.306;12.862;2024-02-16T07:09:17;11.23;;;6.63;;
12042;SDS011;6082;49.306;12.862;2024-02-16T07:11:43;17.43;;;6.97;;
12042;SDS011;6082;49.306;12.862;2024-02-16T07:14:11;11.73;;;6.20;;
12042;SDS011;6082;49.306;12.862;2024-02-16T07:16:38;13.33;;;6.90;;
12042;SDS011;6082;49.306;12.862;2024-02-16T07:19:03;13.10;;;6.93;;
12042;SDS011;6082;49.306;12.862;2024-02-16T07:21:30;15.53;;;6.43;;
12042;SDS011;6082;49.306;12.862;2024-02-16T07:23:55;18.20;;;7.77;;
12042;SDS011;6082;49.306;12.862;2024-02-16T07:26:21;15.07;;;7.37;;
12042;SDS011;6082;49.306;12.862;2024-02-16T07:28:47;14.03;;;6.53;;
12042;SDS011;6082;49.306;12.862;2024-02-16T07:31:12;16.20;;;6.20;;
12042;SDS011;6082;49.306;12.862;2024-02-16T07:33:39;11.83;;;6.53;;
12042;SDS011;6082;49.306;12.862;2024-02-16T07:36:05;9.90;;;5.83;;
12042;SDS011;6082;49.306;12.862;2024-02-16T07:38:31;10.53;;;5.93;;
12042;SDS011;6082;49.306;12.862;2024-02-16T07:40:57;9.30;;;5.43;;
12042;SDS011;6082;49.306;12.862;2024-02-16T07:43:23;11.13;;;5.90;;
12042;SDS011;6082;49.306;12.862;2024-02-16T07:45:49;10.80;;;6.00;;
12042;SDS011;6082;49.306;12.862;2024-02-16T07:48:15;10.93;;;5.97;;
12042;SDS011;6082;49.306;12.862;2024-02-16T07:50:41;11.70;;;5.60;;
12042;SDS011;6082;49.306;12.862;2024-02-16T07:53:06;9.10;;;6.33;;
12042;SDS011;6082;49.306;12.862;2024-02-16T07:55:32;7.67;;;5.10;;
12042;SDS011;6082;49.306;12.862;2024-02-16T07:57:58;8.40;;;5.43;;
12042;SDS011;6082;49.306;12.862;2024-02-16T08:00:25;8.97;;;5.70;;
12042;SDS011;6082;49.306;12.862;2024-02-16T08:02:51;11.20;;;5.93;;
12042;SDS011;6082;49.306;12.862;2024-02-16T08:05:17;9.37;;;5.50;;
12042;SDS011;6082;49.306;12.862;2024-02-16T08:07:44;12.13;;;6.43;;
12042;SDS011;6082;49.306;12.862;2024-02-16T08:10:12;10.73;;;6.03;;
12042;SDS011;6082;49.306;12.862;2024-02-16T08:12:38;9.47;;;6.40;;
12042;SDS011;6082;49.306;12.862;2024-02-16T08:15:04;10.43;;;6.30;;
12042;SDS011;6082;49.306;12.862;2024-02-16T08:17:34;12.33;;;7.30;;
12042;SDS011;6082;49.306;12.862;2024-02-16T08:20:01;10.70;;;7.20;;
12042;SDS011;6082;49.306;12.862;2024-02-16T08:22:27;13.07;;;7.47;;
12042;SDS011;6082;49.306;12.862;2024-02-16T08:24:52;11.80;;;7.63;;
12042;SDS011;6082;49.306;12.862;2024-02-16T08:27:18;13.63;;;7.13;;
12042;SDS011;6082;49.306;12.862;2024-02-16T08:29:44;16.93;;;8.13;;
12042;SDS011;6082;49.306;12.862;2024-02-16T08:32:10;15.03;;;7.80;;
12042;SDS011;6082;49.306;12.862;2024-02-16T08:34:36;15.63;;;7.60;;
12042;SDS011;6082;49.306;12.862;2024-02-16T08:37:05;12.23;;;7.33;;
12042;SDS011;6082;49.306;12.862;2024-02-16T08:39:32;13.43;;;7.07;;
12042;SDS011;6082;49.306;12.862;2024-02-16T08:41:59;11.43;;;6.97;;
12042;SDS011;6082;49.306;12.862;2024-02-16T08:44:25;12.03;;;6.67;;
12042;SDS011;6082;49.306;12.862;2024-02-16T08:46:51;7.93;;;5.57;;
12042;SDS011;6082;49.306;12.862;2024-02-16T08:49:18;14.00;;;6.87;;
12042;SDS011;6082;49.306;12.862;2024-02-16T08:51:45;9.70;;;6.20;;
12042;SDS011;6082;49.306;12.862;2024-02-16T08:54:10;12.37;;;6.83;;
12042;SDS011;6082;49.306;12.862;2024-02-16T08:56:36;10.70;;;6.33;;
12042;SDS011;6082;49.306;12.862;2024-02-16T08:59:04;11.67;;;6.40;;
12042;SDS011;6082;49.306;12.862;2024-02-16T09:01:33;10.33;;;6.03;;
12042;SDS011;6082;49.306;12.862;2024-02-16T09:04:00;10.03;;;6.13;;
12042;SDS011;6082;49.306;12.862;2024-02-16T09:06:26;9.90;;;6.10;;
12042;SDS011;6082;49.306;12.862;2024-02-16T09:08:53;7.80;;;5.60;;
12042;SDS011;6082;49.306;12.862;2024-02-16T09:11:18;8.93;;;5.77;;
12042;SDS011;6082;49.306;12.862;2024-02-16T09:13:44;10.20;;;6.13;;
12042;SDS011;6082;49.306;12.862;2024-02-16T09:16:10;8.47;;;5.83;;
12042;SDS011;6082;49.306;12.862;2024-02-16T09:18:36;9.23;;;6.27;;
12042;SDS011;6082;49.306;12.862;2024-02-16T09:21:03;9.20;;;5.63;;
12042;SDS011;6082;49.306;12.862;2024-02-16T09:23:28;8.87;;;6.00;;
12042;SDS011;6082;49.306;12.862;2024-02-16T09:25:54;10.77;;;6.70;;
12042;SDS011;6082;49.306;12.862;2024-02-16T09:28:20;10.40;;;6.07;;
12042;SDS011;6082;49.306;12.862;2024-02-16T09:30:46;12.23;;;6.53;;
12042;SDS011;6082;49.306;12.862;2024-02-16T09:33:12;12.10;;;6.97;;
12042;SDS011;6082;49.306;12.862;2024-02-16T09:35:39;11.33;;;7.10;;
12042;SDS011;6082;49.306;12.862;2024-02-16T09:38:05;11.57;;;6.10;;
12042;SDS011;6082;49.306;12.862;2024-02-16T09:40:31;10.23;;;5.87;;
12042;SDS011;6082;49.306;12.862;2024-02-16T09:42:57;11.23;;;6.20;;
12042;SDS011;6082;49.306;12.862;2024-02-16T09:45:23;8.43;;;5.57;;
12042;SDS011;6082;49.306;12.862;2024-02-16T09:47:51;9.93;;;6.00;;
12042;SDS011;6082;49.306;12.862;2024-02-16T09:50:20;9.97;;;5.83;;
12042;SDS011;6082;49.306;12.862;2024-02-16T09:52:46;9.97;;;5.47;;
12042;SDS011;6082;49.306;12.862;2024-02-16T09:55:14;9.17;;;5.97;;
12042;SDS011;6082;49.306;12.862;2024-02-16T09:57:40;9.93;;;5.70;;
12042;SDS011;6082;49.306;12.862;2024-02-16T10:00:06;9.87;;;6.20;;
12042;SDS011;6082;49.306;12.862;2024-02-16T10:02:43;9.90;;;6.07;;
12042;SDS011;6082;49.306;12.862;2024-02-16T10:05:20;9.90;;;5.67;;
12042;SDS011;6082;49.306;12.862;2024-02-16T10:07:46;8.87;;;6.13;;
12042;SDS011;6082;49.306;12.862;2024-02-16T10:13:02;8.50;;;4.80;;
12042;SDS011;6082;49.306;12.862;2024-02-16T10:15:29;8.87;;;5.07;;
12042;SDS011;6082;49.306;12.862;2024-02-16T10:18:02;8.03;;;5.10;;
12042;SDS011;6082;49.306;12.862;2024-02-16T10:20:31;7.27;;;5.20;;
12042;SDS011;6082;49.306;12.862;2024-02-16T10:23:16;11.10;;;5.50;;
12042;SDS011;6082;49.306;12.862;2024-02-16T10:25:42;9.43;;;5.53;;
12042;SDS011;6082;49.306;12.862;2024-02-16T10:28:09;6.87;;;4.80;;
12042;SDS011;6082;49.306;12.862;2024-02-16T10:30:37;9.00;;;5.43;;
12042;SDS011;6082;49.306;12.862;2024-02-16T10:33:06;7.03;;;4.90;;
12042;SDS011;6082;49.306;12.862;2024-02-16T10:35:36;8.37;;;5.10;;
12042;SDS011;6082;49.306;12.862;2024-02-16T10:38:02;6.97;;;5.20;;
12042;SDS011;6082;49.306;12.862;2024-02-16T10:40:41;6.83;;;5.23;;
12042;SDS011;6082;49.306;12.862;2024-02-16T10:43:08;9.23;;;5.43;;
12042;SDS011;6082;49.306;12.862;2024-02-16T10:45:35;8.30;;;5.80;;
12042;SDS011;6082;49.306;12.862;2024-02-16T10:48:05;7.67;;;5.27;;
12042;SDS011;6082;49.306;12.862;2024-02-16T10:50:33;7.40;;;5.07;;
12042;SDS011;6082;49.306;12.862;2024-02-16T10:53:02;11.07;;;5.97;;
12042;SDS011;6082;49.306;12.862;2024-02-16T10:55:34;7.93;;;5.13;;
12042;SDS011;6082;49.306;12.862;2024-02-16T10:58:00;7.97;;;5.00;;
12042;SDS011;6082;49.306;12.862;2024-02-16T11:00:26;7.20;;;4.73;;
12042;SDS011;6082;49.306;12.862;2024-02-16T11:02:55;8.13;;;5.57;;
12042;SDS011;6082;49.306;12.862;2024-02-16T11:05:33;7.27;;;4.73;;
12042;SDS011;6082;49.306;12.862;2024-02-16T11:08:04;5.50;;;4.13;;
12042;SDS011;6082;49.306;12.862;2024-02-16T11:10:36;6.30;;;4.50;;
12042;SDS011;6082;49.306;12.862;2024-02-16T11:13:03;7.07;;;4.17;;
12042;SDS011;6082;49.306;12.862;2024-02-16T11:15:35;6.40;;;4.13;;
12042;SDS011;6082;49.306;12.862;2024-02-16T11:18:02;6.50;;;4.17;;
12042;SDS011;6082;49.306;12.862;2024-02-16T11:20:35;5.13;;;3.57;;
12042;SDS011;6082;49.306;12.862;2024-02-16T11:23:09;7.27;;;4.70;;
12042;SDS011;6082;49.306;12.862;2024-02-16T11:25:35;7.20;;;4.43;;
12042;SDS011;6082;49.306;12.862;2024-02-16T11:28:02;5.57;;;3.37;;
12042;SDS011;6082;49.306;12.862;2024-02-16T11:30:31;5.60;;;3.47;;
12042;SDS011;6082;49.306;12.862;2024-02-16T11:32:59;4.03;;;3.40;;
12042;SDS011;6082;49.306;12.862;2024-02-16T11:35:25;4.40;;;2.97;;
12042;SDS011;6082;49.306;12.862;2024-02-16T11:37:50;5.07;;;3.57;;
12042;SDS011;6082;49.306;12.862;2024-02-16T11:40:16;4.43;;;3.13;;
12042;SDS011;6082;49.306;12.862;2024-02-16T11:42:44;4.40;;;3.27;;
12042;SDS011;6082;49.306;12.862;2024-02-16T11:45:11;5.07;;;3.33;;
12042;SDS011;6082;49.306;12.862;2024-02-16T11:47:38;5.53;;;3.40;;
12042;SDS011;6082;49.306;12.862;2024-02-16T11:50:04;6.30;;;4.13;;
12042;SDS011;6082;49.306;12.862;2024-02-16T11:52:32;6.10;;;3.67;;
12042;SDS011;6082;49.306;12.862;2024-02-16T11:54:59;5.37;;;3.80;;
12042;SDS011;6082;49.306;12.862;2024-02-16T11:57:29;6.93;;;3.90;;
12042;SDS011;6082;49.306;12.862;2024-02-16T11:59:55;6.17;;;3.60;;
12042;SDS011;6082;49.306;12.862;2024-02-16T12:02:23;5.17;;;3.17;;
12042;SDS011;6082;49.306;12.862;2024-02-16T12:04:57;5.87;;;3.80;;
12042;SDS011;6082;49.306;12.862;2024-02-16T12:07:27;5.90;;;3.97;;
12042;SDS011;6082;49.306;12.862;2024-02-16T12:10:02;4.30;;;3.43;;
12042;SDS011;6082;49.306;12.862;2024-02-16T12:12:31;4.87;;;3.23;;
12042;SDS011;6082;49.306;12.862;2024-02-16T12:14:57;6.57;;;3.67;;
12042;SDS011;6082;49.306;12.862;2024-02-16T12:17:23;4.23;;;3.23;;
12042;SDS011;6082;49.306;12.862;2024-02-16T12:19:50;5.53;;;3.77;;
12042;SDS011;6082;49.306;12.862;2024-02-16T12:22:22;5.60;;;3.77;;
12042;SDS011;6082;49.306;12.862;2024-02-16T12:24:49;7.37;;;3.93;;
12042;SDS011;6082;49.306;12.862;2024-02-16T12:27:16;4.33;;;3.17;;
12042;SDS011;6082;49.306;12.862;2024-02-16T12:29:42;4.50;;;3.30;;
12042;SDS011;6082;49.306;12.862;2024-02-16T12:32:08;5.37;;;3.13;;
12042;SDS011;6082;49.306;12.862;2024-02-16T12:34:37;4.00;;;3.10;;
12042;SDS011;6082;49.306;12.862;2024-02-16T12:37:06;4.40;;;2.70;;
12042;SDS011;6082;49.306;12.862;2024-02-16T12:39:36;4.03;;;2.80;;
12042;SDS011;6082;49.306;12.862;2024-02-16T12:42:04;4.87;;;3.03;;
12042;SDS011;6082;49.306;12.862;2024-02-16T12:44:29;4.73;;;2.93;;
12042;SDS011;6082;49.306;12.862;2024-02-16T12:46:55;4.07;;;2.73;;
12042;SDS011;6082;49.306;12.862;2024-02-16T12:49:21;4.30;;;3.03;;
12042;SDS011;6082;49.306;12.862;2024-02-16T12:51:50;4.63;;;3.37;;
12042;SDS011;6082;49.306;12.862;2024-02-16T12:54:17;4.80;;;3.20;;
12042;SDS011;6082;49.306;12.862;2024-02-16T12:56:47;5.07;;;3.27;;
12042;SDS011;6082;49.306;12.862;2024-02-16T12:59:14;3.43;;;2.83;;
12042;SDS011;6082;49.306;12.862;2024-02-16T13:01:40;3.70;;;2.67;;
12042;SDS011;6082;49.306;12.862;2024-02-16T13:04:07;3.53;;;2.83;;
12042;SDS011;6082;49.306;12.862;2024-02-16T13:06:33;5.07;;;3.37;;
12042;SDS011;6082;49.306;12.862;2024-02-16T13:08:59;3.93;;;2.80;;
12042;SDS011;6082;49.306;12.862;2024-02-16T13:11:25;5.77;;;3.30;;
12042;SDS011;6082;49.306;12.862;2024-02-16T13:13:50;4.53;;;3.10;;
12042;SDS011;6082;49.306;12.862;2024-02-16T13:16:16;4.23;;;2.90;;
12042;SDS011;6082;49.306;12.862;2024-02-16T13:18:46;3.47;;;2.77;;
12042;SDS011;6082;49.306;12.862;2024-02-16T13:21:11;3.07;;;2.50;;
12042;SDS011;6082;49.306;12.862;2024-02-16T13:23:37;4.10;;;3.00;;
12042;SDS011;6082;49.306;12.862;2024-02-16T13:26:03;3.43;;;2.80;;
12042;SDS011;6082;49.306;12.862;2024-02-16T13:28:29;3.67;;;2.63;;
12042;SDS011;6082;49.306;12.862;2024-02-16T13:30:55;3.03;;;2.67;;
12042;SDS011;6082;49.306;12.862;2024-02-16T13:33:21;3.47;;;2.90;;
12042;SDS011;6082;49.306;12.862;2024-02-16T13:35:47;3.93;;;2.87;;
12042;SDS011;6082;49.306;12.862;2024-02-16T13:38:13;3.73;;;2.70;;
12042;SDS011;6082;49.306;12.862;2024-02-16T13:40:39;3.97;;;2.80;;
12042;SDS011;6082;49.306;12.862;2024-02-16T13:43:05;3.67;;;3.17;;
12042;SDS011;6082;49.306;12.862;2024-02-16T13:45:46;4.10;;;2.63;;
12042;SDS011;6082;49.306;12.862;2024-02-16T13:48:14;3.50;;;2.47;;
12042;SDS011;6082;49.306;12.862;2024-02-16T13:50:39;3.80;;;2.67;;
12042;SDS011;6082;49.306;12.862;2024-02-16T13:53:05;4.10;;;3.37;;
12042;SDS011;6082;49.306;12.862;2024-02-16T13:55:31;4.10;;;3.30;;
12042;SDS011;6082;49.306;12.862;2024-02-16T13:57:56;4.53;;;3.50;;
12042;SDS011;6082;49.306;12.862;2024-02-16T14:00:22;6.73;;;5.00;;
12042;SDS011;6082;49.306;12.862;2024-02-16T14:02:48;4.87;;;3.63;;
12042;SDS011;6082;49.306;12.862;2024-02-16T14:05:13;4.60;;;3.13;;
12042;SDS011;6082;49.306;12.862;2024-02-16T14:07:39;3.87;;;2.93;;
12042;SDS011;6082;49.306;12.862;2024-02-16T14:10:05;5.50;;;3.40;;
12042;SDS011;6082;49.306;12.862;2024-02-16T14:12:31;4.40;;;2.63;;
12042;SDS011;6082;49.306;12.862;2024-02-16T14:14:57;4.07;;;2.67;;
12042;SDS011;6082;49.306;12.862;2024-02-16T14:17:23;4.23;;;3.27;;
12042;SDS011;6082;49.306;12.862;2024-02-16T14:19:48;4.53;;;3.30;;
12042;SDS011;6082;49.306;12.862;2024-02-16T14:22:14;3.80;;;2.80;;
12042;SDS011;6082;49.306;12.862;2024-02-16T14:24:40;4.73;;;3.50;;
12042;SDS011;6082;49.306;12.862;2024-02-16T14:27:05;4.83;;;3.50;;
12042;SDS011;6082;49.306;12.862;2024-02-16T14:29:31;7.30;;;5.57;;
12042;SDS011;6082;49.306;12.862;2024-02-16T14:31:57;4.67;;;3.43;;
12042;SDS011;6082;49.306;12.862;2024-02-16T14:34:22;5.07;;;3.30;;
12042;SDS011;6082;49.306;12.862;2024-02-16T14:36:48;6.80;;;4.03;;
12042;SDS011;6082;49.306;12.862;2024-02-16T14:39:14;5.70;;;4.30;;
12042;SDS011;6082;49.306;12.862;2024-02-16T14:41:41;6.57;;;4.30;;
12042;SDS011;6082;49.306;12.862;2024-02-16T14:44:08;6.60;;;4.23;;